createdAt,value
2024-04-30T00:00:47.580Z,1.05
2024-04-30T00:03:15.047Z,0.93
2024-04-30T00:05:44.401Z,0.80
2024-04-30T00:08:11.791Z,1.20
2024-04-30T00:10:39.193Z,0.90
2024-04-30T00:13:06.759Z,1.20
2024-04-30T00:15:34.224Z,1.10
2024-04-30T00:18:01.642Z,1.40
2024-04-30T00:20:29.088Z,1.40
2024-04-30T00:22:56.522Z,1.20
2024-04-30T00:25:23.932Z,1.17
2024-04-30T00:27:51.284Z,1.30
2024-04-30T00:30:18.700Z,1.20
2024-04-30T00:32:46.092Z,1.17
2024-04-30T00:35:13.667Z,1.20
2024-04-30T00:37:41.237Z,1.30
2024-04-30T00:40:09.971Z,1.30
2024-04-30T00:42:37.458Z,1.30
2024-04-30T00:45:05.647Z,1.65
2024-04-30T00:47:33.817Z,1.42
2024-04-30T00:50:02.269Z,1.33
2024-04-30T00:52:30.037Z,1.40
2024-04-30T00:54:58.516Z,1.30
2024-04-30T00:57:26.073Z,1.10
2024-04-30T00:59:53.840Z,1.10
2024-04-30T01:02:21.394Z,1.63
2024-04-30T01:05:01.689Z,1.20
2024-04-30T01:07:29.702Z,1.50
2024-04-30T01:09:57.869Z,1.20
2024-04-30T01:12:25.485Z,1.60
2024-04-30T01:14:52.807Z,1.27
2024-04-30T01:17:20.459Z,1.20
2024-04-30T01:19:47.891Z,1.42
2024-04-30T01:22:15.287Z,1.15
2024-04-30T01:24:42.728Z,1.50
2024-04-30T01:27:10.078Z,1.50
2024-04-30T01:29:37.472Z,1.45
2024-04-30T01:32:05.322Z,1.70
2024-04-30T01:34:32.913Z,1.20
2024-04-30T01:37:00.457Z,2.00
2024-04-30T01:39:27.790Z,1.80
2024-04-30T01:41:55.196Z,2.05
2024-04-30T01:44:22.539Z,1.95
2024-04-30T01:46:49.898Z,2.17
2024-04-30T01:49:17.432Z,1.73
2024-04-30T01:51:44.820Z,2.10
2024-04-30T01:54:12.108Z,2.22
2024-04-30T01:56:39.686Z,2.75
2024-04-30T01:59:07.116Z,2.20
2024-04-30T02:01:34.921Z,2.53
2024-04-30T02:04:02.372Z,2.50
2024-04-30T02:06:30.112Z,2.50
2024-04-30T02:08:58.099Z,2.55
2024-04-30T02:11:25.585Z,2.58
2024-04-30T02:13:53.022Z,2.85
2024-04-30T02:16:20.459Z,2.70
2024-04-30T02:18:47.815Z,2.60
2024-04-30T02:21:15.196Z,2.42
2024-04-30T02:23:43.568Z,2.70
2024-04-30T02:26:10.978Z,2.78
2024-04-30T02:28:39.719Z,2.42
2024-04-30T02:31:25.844Z,2.65
2024-04-30T02:34:12.057Z,3.00
2024-04-30T02:36:39.435Z,2.53
2024-04-30T02:39:07.520Z,3.13
2024-04-30T02:41:35.006Z,2.85
2024-04-30T02:44:02.492Z,2.70
2024-04-30T02:46:30.030Z,2.55
2024-04-30T02:48:57.484Z,3.42
2024-04-30T02:51:24.943Z,3.47
2024-04-30T02:53:52.277Z,4.25
2024-04-30T02:56:19.972Z,3.13
2024-04-30T02:58:47.346Z,3.20
2024-04-30T03:01:15.284Z,3.03
2024-04-30T03:03:43.735Z,3.17
2024-04-30T03:06:12.771Z,3.28
2024-04-30T03:08:41.112Z,2.67
2024-04-30T03:11:08.515Z,3.05
2024-04-30T03:13:36.351Z,2.70
2024-04-30T03:16:07.076Z,2.67
2024-04-30T03:18:34.747Z,2.70
2024-04-30T03:21:02.080Z,2.53
2024-04-30T03:23:29.460Z,2.53
2024-04-30T03:25:56.840Z,2.72
2024-04-30T03:28:24.450Z,3.10
2024-04-30T03:30:54.736Z,2.78
2024-04-30T03:33:22.561Z,2.65
2024-04-30T03:35:50.223Z,2.70
2024-04-30T03:38:17.771Z,2.58
2024-04-30T03:40:45.177Z,2.30
2024-04-30T03:43:12.608Z,2.70
2024-04-30T03:45:40.261Z,2.75
2024-04-30T03:48:08.470Z,2.70
2024-04-30T03:50:35.917Z,3.25
2024-04-30T03:53:03.376Z,2.75
2024-04-30T03:55:31.104Z,2.75
2024-04-30T03:57:58.463Z,3.08
2024-04-30T04:00:25.923Z,2.92
2024-04-30T04:02:53.405Z,2.80
2024-04-30T04:05:20.776Z,2.97
2024-04-30T04:07:48.132Z,3.00
2024-04-30T04:10:15.600Z,2.88
2024-04-30T04:13:01.962Z,2.78
2024-04-30T04:15:30.516Z,2.58
2024-04-30T04:17:57.955Z,2.58
2024-04-30T04:20:25.372Z,2.72
2024-04-30T04:22:54.076Z,2.83
2024-04-30T04:25:21.489Z,2.80
2024-04-30T04:27:49.011Z,2.83
2024-04-30T04:30:16.474Z,2.80
2024-04-30T04:32:43.880Z,3.00
2024-04-30T04:35:11.260Z,3.33
2024-04-30T04:37:38.835Z,2.15
2024-04-30T04:40:07.041Z,2.78
2024-04-30T04:42:34.468Z,2.20
2024-04-30T04:45:01.841Z,2.30
2024-04-30T04:47:29.379Z,2.17
2024-04-30T04:49:56.773Z,2.95
2024-04-30T04:52:24.227Z,2.78
2024-04-30T04:54:51.566Z,2.70
2024-04-30T04:57:18.886Z,2.30
2024-04-30T04:59:46.291Z,2.38
2024-04-30T05:02:14.048Z,2.53
2024-04-30T05:04:41.506Z,2.67
2024-04-30T05:07:08.967Z,3.03
2024-04-30T05:09:36.370Z,2.45
2024-04-30T05:12:04.214Z,2.55
2024-04-30T05:14:31.865Z,2.70
2024-04-30T05:16:59.505Z,2.30
2024-04-30T05:19:27.041Z,1.90
2024-04-30T05:21:54.442Z,2.63
2024-04-30T05:24:21.765Z,2.53
2024-04-30T05:26:49.132Z,2.40
2024-04-30T05:29:16.567Z,2.30
2024-04-30T05:31:44.167Z,2.30
2024-04-30T05:34:11.554Z,2.28
2024-04-30T05:36:39.109Z,2.47
2024-04-30T05:39:06.525Z,2.80
2024-04-30T05:41:33.875Z,2.50
2024-04-30T05:44:01.206Z,2.35
2024-04-30T05:46:28.982Z,2.63
2024-04-30T05:48:57.174Z,2.88
2024-04-30T05:51:24.540Z,2.55
2024-04-30T05:53:55.057Z,3.03
2024-04-30T05:56:23.801Z,2.67
2024-04-30T05:58:51.144Z,2.88
2024-04-30T06:01:18.572Z,2.67
2024-04-30T06:03:46.042Z,2.45
2024-04-30T06:06:13.477Z,2.20
2024-04-30T06:08:41.753Z,2.60
2024-04-30T06:11:09.863Z,2.40
2024-04-30T06:13:37.436Z,2.47
2024-04-30T06:16:05.304Z,3.40
2024-04-30T06:18:32.775Z,3.10
2024-04-30T06:21:00.177Z,2.47
2024-04-30T06:23:27.565Z,3.22
2024-04-30T06:25:54.932Z,2.55
2024-04-30T06:28:24.082Z,3.60
2024-04-30T06:30:51.783Z,2.70
2024-04-30T06:33:19.250Z,2.35
2024-04-30T06:35:46.633Z,2.58
2024-04-30T06:38:14.330Z,2.38
2024-04-30T06:40:41.769Z,2.28
2024-04-30T06:43:09.261Z,2.00
2024-04-30T06:45:36.731Z,2.17
2024-04-30T06:48:05.676Z,2.05
2024-04-30T06:50:33.387Z,2.08
2024-04-30T06:53:01.043Z,2.08
2024-04-30T06:55:28.429Z,2.65
2024-04-30T06:57:55.819Z,2.17
2024-04-30T07:00:23.166Z,1.88
2024-04-30T07:02:50.899Z,1.60
2024-04-30T07:05:18.496Z,1.88
2024-04-30T07:07:45.954Z,1.95
2024-04-30T07:10:13.737Z,2.15
2024-04-30T07:12:41.214Z,3.40
2024-04-30T07:15:08.966Z,1.83
2024-04-30T07:17:36.450Z,2.40
2024-04-30T07:20:04.106Z,2.10
2024-04-30T07:22:31.483Z,2.20
2024-04-30T07:24:58.853Z,1.90
2024-04-30T07:27:26.386Z,2.70
2024-04-30T07:29:53.831Z,1.80
2024-04-30T07:32:21.370Z,1.98
2024-04-30T07:34:48.796Z,1.98
2024-04-30T07:37:16.248Z,2.53
2024-04-30T07:39:43.667Z,2.08
2024-04-30T07:42:11.090Z,1.95
2024-04-30T07:44:38.603Z,2.78
2024-04-30T07:47:06.115Z,1.80
2024-04-30T07:49:33.651Z,2.08
2024-04-30T07:52:01.361Z,2.20
2024-04-30T07:54:28.733Z,2.25
2024-04-30T07:56:56.072Z,2.50
2024-04-30T07:59:23.559Z,2.28
2024-04-30T08:01:51.104Z,1.92
2024-04-30T08:04:18.602Z,2.83
2024-04-30T08:06:46.039Z,2.55
2024-04-30T08:09:13.414Z,2.10
2024-04-30T08:11:40.808Z,2.40
2024-04-30T08:14:08.154Z,2.50
2024-04-30T08:16:35.583Z,2.03
2024-04-30T08:19:03.432Z,2.15
2024-04-30T08:21:31.010Z,2.20
2024-04-30T08:24:01.365Z,2.53
2024-04-30T08:26:29.126Z,2.40
2024-04-30T08:28:56.570Z,2.05
2024-04-30T08:31:24.381Z,2.13
2024-04-30T08:33:51.946Z,2.00
2024-04-30T08:36:25.715Z,1.80
2024-04-30T08:38:55.953Z,1.80
2024-04-30T08:41:25.259Z,2.13
2024-04-30T08:43:55.380Z,1.80
2024-04-30T08:46:22.900Z,1.65
2024-04-30T08:48:52.685Z,1.98
2024-04-30T08:51:20.194Z,1.80
2024-04-30T08:53:50.661Z,1.63
2024-04-30T08:56:18.008Z,1.73
2024-04-30T08:58:46.878Z,1.77
2024-04-30T09:01:16.803Z,1.50
2024-04-30T09:03:45.207Z,1.52
2024-04-30T09:06:13.716Z,1.42
2024-04-30T09:08:41.078Z,1.20
2024-04-30T09:11:08.561Z,1.40
2024-04-30T09:13:37.252Z,1.30
2024-04-30T09:16:06.273Z,1.10
2024-04-30T09:18:33.825Z,1.17
2024-04-30T09:21:12.402Z,1.25
2024-04-30T09:23:44.596Z,1.20
2024-04-30T09:26:12.403Z,1.27
2024-04-30T09:28:40.020Z,1.15
2024-04-30T09:31:11.110Z,1.73
2024-04-30T09:33:39.090Z,1.30
2024-04-30T09:36:11.395Z,2.05
2024-04-30T09:38:40.790Z,1.13
2024-04-30T09:41:12.526Z,1.52
2024-04-30T09:43:41.223Z,1.35
2024-04-30T09:46:09.667Z,1.08
2024-04-30T09:48:37.693Z,1.50
2024-04-30T09:51:06.867Z,1.20
2024-04-30T09:53:35.107Z,2.08
2024-04-30T09:56:03.683Z,1.10
2024-04-30T09:58:31.965Z,1.38
2024-04-30T10:01:04.474Z,1.13
2024-04-30T10:03:36.262Z,0.90
2024-04-30T10:06:05.135Z,1.13
2024-04-30T10:08:32.643Z,1.10
2024-04-30T10:11:07.639Z,1.08
2024-04-30T10:13:36.256Z,1.02
2024-04-30T10:16:16.711Z,1.00
2024-04-30T10:18:44.416Z,1.00
2024-04-30T10:21:13.135Z,0.73
2024-04-30T10:23:43.819Z,0.90
2024-04-30T10:26:12.802Z,0.80
2024-04-30T10:28:40.611Z,0.93
2024-04-30T10:31:12.853Z,0.80
2024-04-30T10:33:40.978Z,0.90
2024-04-30T10:36:13.329Z,0.88
2024-04-30T10:38:41.306Z,1.17
2024-04-30T10:41:09.527Z,0.95
2024-04-30T10:43:37.159Z,1.08
2024-04-30T10:46:18.685Z,1.10
2024-04-30T10:48:50.440Z,0.80
2024-04-30T10:51:18.768Z,1.10
2024-04-30T10:53:46.918Z,0.85
2024-04-30T10:56:15.333Z,0.98
2024-04-30T10:58:55.869Z,0.80
2024-04-30T11:01:32.990Z,1.30
2024-04-30T11:04:10.348Z,1.40
2024-04-30T11:06:41.981Z,1.08
2024-04-30T11:09:11.948Z,1.30
2024-04-30T11:11:48.985Z,1.20
2024-04-30T11:14:16.822Z,0.90
2024-04-30T11:16:45.317Z,1.35
2024-04-30T11:19:13.305Z,1.00
2024-04-30T11:21:41.083Z,1.05
2024-04-30T11:24:10.494Z,0.90
2024-04-30T11:26:38.238Z,0.80
2024-04-30T11:29:16.426Z,0.77
2024-04-30T11:31:53.588Z,0.90
2024-04-30T11:34:21.429Z,0.95
2024-04-30T11:36:48.770Z,0.80
2024-04-30T11:39:16.253Z,1.00
2024-04-30T11:41:49.169Z,0.88
2024-04-30T11:44:24.539Z,0.90
2024-04-30T11:46:52.241Z,1.13
2024-04-30T11:49:19.629Z,0.73
2024-04-30T11:51:46.956Z,0.90
2024-04-30T11:54:14.317Z,1.00
2024-04-30T11:56:42.056Z,0.90
2024-04-30T11:59:09.518Z,0.85
2024-04-30T12:01:37.254Z,0.70
2024-04-30T12:04:04.952Z,0.75
2024-04-30T12:06:35.136Z,2.45
2024-04-30T12:09:04.171Z,0.70
2024-04-30T12:11:31.669Z,0.90
2024-04-30T12:13:59.061Z,0.70
2024-04-30T12:16:27.130Z,0.93
2024-04-30T12:18:55.082Z,1.02
2024-04-30T12:21:22.452Z,0.95
2024-04-30T12:23:49.950Z,0.90
2024-04-30T12:26:17.373Z,1.00
2024-04-30T12:28:45.018Z,0.90
2024-04-30T12:31:12.470Z,0.60
2024-04-30T12:33:40.168Z,1.00
2024-04-30T12:36:07.672Z,1.00
2024-04-30T12:38:35.023Z,0.65
2024-04-30T12:41:02.377Z,0.80
2024-04-30T12:43:29.839Z,0.70
2024-04-30T12:45:57.202Z,0.60
2024-04-30T12:48:24.653Z,0.80
2024-04-30T12:50:52.080Z,0.60
2024-04-30T12:53:19.437Z,0.55
2024-04-30T12:55:46.872Z,0.52
2024-04-30T12:58:14.386Z,0.60
2024-04-30T13:00:41.857Z,0.73
2024-04-30T13:03:09.371Z,0.82
2024-04-30T13:05:37.828Z,0.70
2024-04-30T13:08:05.634Z,0.70
2024-04-30T13:10:32.992Z,0.50
2024-04-30T13:13:00.438Z,0.47
2024-04-30T13:15:28.605Z,0.63
2024-04-30T13:17:55.950Z,0.60
2024-04-30T13:20:23.442Z,0.50
2024-04-30T13:22:50.837Z,0.65
2024-04-30T13:25:18.265Z,0.40
2024-04-30T13:27:46.533Z,0.60
2024-04-30T13:30:14.077Z,0.50
2024-04-30T13:32:44.078Z,0.70
2024-04-30T13:35:11.707Z,0.60
2024-04-30T13:37:40.224Z,0.68
2024-04-30T13:40:08.301Z,0.60
2024-04-30T13:42:35.707Z,0.70
2024-04-30T13:45:03.234Z,0.82
2024-04-30T13:47:30.715Z,0.60
2024-04-30T13:49:58.284Z,0.70
2024-04-30T13:52:25.722Z,0.93
2024-04-30T13:54:53.100Z,0.50
2024-04-30T13:57:20.586Z,0.80
2024-04-30T13:59:48.056Z,0.82
2024-04-30T14:02:18.084Z,0.60
2024-04-30T14:04:45.741Z,0.50
2024-04-30T14:07:13.234Z,0.60
2024-04-30T14:09:40.745Z,0.75
2024-04-30T14:12:08.475Z,1.15
2024-04-30T14:14:39.231Z,0.70
2024-04-30T14:17:06.776Z,0.70
2024-04-30T14:19:35.087Z,0.57
2024-04-30T14:22:03.109Z,0.60
2024-04-30T14:24:30.549Z,0.70
2024-04-30T14:26:57.872Z,1.08
2024-04-30T14:29:25.210Z,0.98
2024-04-30T14:31:52.954Z,0.80
2024-04-30T14:34:20.533Z,0.73
2024-04-30T14:36:47.960Z,0.70
2024-04-30T14:39:15.404Z,0.60
2024-04-30T14:41:44.244Z,0.82
2024-04-30T14:44:12.611Z,0.65
2024-04-30T14:46:43.493Z,0.70
2024-04-30T14:49:12.046Z,1.02
2024-04-30T14:51:40.913Z,0.82
2024-04-30T14:54:09.298Z,0.60
2024-04-30T14:56:37.862Z,1.48
2024-04-30T14:59:05.532Z,1.05
2024-04-30T15:01:33.136Z,0.70
2024-04-30T15:04:00.784Z,1.02
2024-04-30T15:06:31.498Z,0.65
2024-04-30T15:09:00.195Z,1.00
2024-04-30T15:11:27.734Z,1.65
2024-04-30T15:13:55.590Z,0.95
2024-04-30T15:16:23.035Z,0.80
2024-04-30T15:18:50.791Z,0.85
2024-04-30T15:21:18.228Z,1.00
2024-04-30T15:23:46.531Z,0.70
2024-04-30T15:26:15.525Z,1.02
2024-04-30T15:28:43.872Z,1.15
2024-04-30T15:31:18.809Z,1.10
2024-04-30T15:33:46.794Z,0.90
2024-04-30T15:36:14.379Z,1.00
2024-04-30T15:38:42.247Z,1.17
2024-04-30T15:41:09.687Z,1.10
2024-04-30T15:43:39.412Z,0.90
2024-04-30T15:46:07.003Z,1.00
2024-04-30T15:48:36.498Z,1.00
2024-04-30T15:51:07.118Z,0.70
2024-04-30T15:53:38.665Z,0.80
2024-04-30T15:56:17.462Z,0.82
2024-04-30T15:58:48.571Z,0.90
2024-04-30T16:01:16.478Z,0.80
2024-04-30T16:03:44.907Z,1.30
2024-04-30T16:06:14.094Z,0.93
2024-04-30T16:08:41.970Z,0.80
2024-04-30T16:11:11.232Z,1.33
2024-04-30T16:13:41.832Z,0.80
2024-04-30T16:16:16.324Z,1.15
2024-04-30T16:18:47.526Z,1.00
2024-04-30T16:21:16.196Z,2.17
2024-04-30T16:23:45.188Z,0.88
2024-04-30T16:26:13.013Z,1.60
2024-04-30T16:28:44.300Z,0.70
2024-04-30T16:31:14.786Z,0.70
2024-04-30T16:33:44.127Z,1.00
2024-04-30T16:36:20.492Z,0.88
2024-04-30T16:38:49.050Z,0.85
2024-04-30T16:41:17.222Z,0.82
2024-04-30T16:43:44.884Z,1.00
2024-04-30T16:46:12.420Z,0.70
2024-04-30T16:48:40.949Z,1.05
2024-04-30T16:51:13.545Z,2.33
2024-04-30T16:53:42.066Z,0.90
2024-04-30T16:56:10.691Z,1.00
2024-04-30T16:58:38.412Z,0.63
2024-04-30T17:01:05.802Z,0.90
2024-04-30T17:03:34.268Z,1.00
2024-04-30T17:06:06.198Z,1.30
2024-04-30T17:08:36.067Z,1.15
2024-04-30T17:11:06.987Z,1.30
2024-04-30T17:13:34.401Z,0.73
2024-04-30T17:16:03.243Z,1.48
2024-04-30T17:18:31.048Z,1.10
2024-04-30T17:20:59.539Z,0.95
2024-04-30T17:23:26.847Z,0.85
2024-04-30T17:25:54.445Z,1.25
2024-04-30T17:28:23.827Z,0.85
2024-04-30T17:30:51.220Z,1.58
2024-04-30T17:33:18.897Z,1.13
2024-04-30T17:35:46.353Z,1.45
2024-04-30T17:38:14.437Z,0.88
2024-04-30T17:40:41.971Z,1.00
2024-04-30T17:43:09.471Z,0.88
2024-04-30T17:45:36.890Z,0.90
2024-04-30T17:48:04.959Z,1.17
2024-04-30T17:50:32.635Z,0.93
2024-04-30T17:52:59.970Z,1.02
2024-04-30T17:55:27.252Z,1.20
2024-04-30T17:57:54.657Z,1.20
2024-04-30T18:00:23.587Z,0.80
2024-04-30T18:02:52.012Z,0.63
2024-04-30T18:05:19.483Z,0.80
2024-04-30T18:07:46.880Z,1.23
2024-04-30T18:10:15.618Z,0.73
2024-04-30T18:12:45.206Z,0.80
2024-04-30T18:15:16.141Z,0.90
2024-04-30T18:17:43.569Z,0.80
2024-04-30T18:20:11.357Z,0.98
2024-04-30T18:22:40.182Z,1.05
2024-04-30T18:25:08.140Z,1.10
2024-04-30T18:27:36.016Z,0.85
2024-04-30T18:30:04.387Z,1.30
2024-04-30T18:32:32.061Z,1.20
2024-04-30T18:34:59.719Z,1.15
2024-04-30T18:37:27.773Z,0.82
2024-04-30T18:39:55.140Z,0.80
2024-04-30T18:42:22.685Z,0.70
2024-04-30T18:44:50.457Z,0.80
2024-04-30T18:47:17.812Z,0.80
2024-04-30T18:49:45.734Z,1.40
2024-04-30T18:52:15.489Z,1.13
2024-04-30T18:54:42.922Z,1.45
2024-04-30T18:57:11.674Z,0.80
2024-04-30T18:59:39.140Z,1.10
2024-04-30T19:02:06.968Z,0.90
2024-04-30T19:04:34.723Z,0.93
2024-04-30T19:07:02.184Z,1.30
2024-04-30T19:09:29.628Z,1.80
2024-04-30T19:11:57.078Z,1.52
2024-04-30T19:14:24.475Z,1.75
2024-04-30T19:16:51.836Z,0.90
2024-04-30T19:19:21.494Z,1.02
2024-04-30T19:21:49.651Z,1.00
2024-04-30T19:24:19.733Z,1.15
2024-04-30T19:26:50.629Z,1.40
2024-04-30T19:29:18.016Z,1.30
2024-04-30T19:31:45.463Z,1.38
2024-04-30T19:34:14.734Z,1.40
2024-04-30T19:36:43.762Z,1.42
2024-04-30T19:39:11.167Z,1.70
2024-04-30T19:41:38.632Z,1.80
2024-04-30T19:44:06.088Z,1.88
2024-04-30T19:46:33.447Z,1.40
2024-04-30T19:49:01.427Z,1.55
2024-04-30T19:51:28.964Z,1.45
2024-04-30T19:53:56.401Z,1.25
2024-04-30T19:56:24.004Z,1.50
2024-04-30T19:58:57.624Z,1.10
2024-04-30T20:01:29.100Z,1.20
2024-04-30T20:03:58.219Z,1.20
2024-04-30T20:06:26.285Z,1.02
2024-04-30T20:08:53.994Z,1.80
2024-04-30T20:11:24.884Z,1.50
2024-04-30T20:13:53.567Z,1.67
2024-04-30T20:16:21.139Z,1.40
2024-04-30T20:18:49.715Z,1.27
2024-04-30T20:21:17.523Z,1.48
2024-04-30T20:23:45.213Z,1.50
2024-04-30T20:26:13.228Z,1.38
2024-04-30T20:28:40.973Z,1.50
2024-04-30T20:31:08.677Z,1.92
2024-04-30T20:33:36.219Z,1.35
2024-04-30T20:36:03.754Z,1.80
2024-04-30T20:38:32.675Z,1.98
2024-04-30T20:41:00.130Z,1.95
2024-04-30T20:43:27.530Z,2.20
2024-04-30T20:45:55.317Z,1.70
2024-04-30T20:48:22.777Z,1.80
2024-04-30T20:50:50.270Z,1.67
2024-04-30T20:53:17.623Z,1.50
2024-04-30T20:55:45.720Z,1.90
2024-04-30T20:58:13.175Z,1.80
2024-04-30T21:00:40.579Z,1.65
2024-04-30T21:03:08.317Z,1.55
2024-04-30T21:05:35.748Z,1.40
2024-04-30T21:08:03.163Z,1.67
2024-04-30T21:10:30.519Z,1.15
2024-04-30T21:13:01.260Z,1.88
2024-04-30T21:15:28.940Z,1.40
2024-04-30T21:17:56.479Z,1.88
2024-04-30T21:20:23.912Z,1.42
2024-04-30T21:22:51.349Z,2.05
2024-04-30T21:25:18.719Z,1.45
2024-04-30T21:27:46.097Z,1.35
2024-04-30T21:30:13.609Z,2.08
2024-04-30T21:32:41.183Z,1.45
2024-04-30T21:35:13.244Z,2.10
2024-04-30T21:37:41.171Z,1.65
2024-04-30T21:40:09.686Z,1.58
2024-04-30T21:42:37.482Z,1.77
2024-04-30T21:45:05.202Z,1.67
2024-04-30T21:47:32.780Z,1.73
2024-04-30T21:50:00.281Z,1.75
2024-04-30T21:52:27.691Z,1.50
2024-04-30T21:54:55.185Z,1.50
2024-04-30T21:57:23.021Z,2.30
2024-04-30T21:59:50.467Z,1.80
2024-04-30T22:02:17.941Z,1.80
2024-04-30T22:04:46.544Z,2.03
2024-04-30T22:07:16.890Z,1.98
2024-04-30T22:09:45.119Z,1.52
2024-04-30T22:12:12.616Z,1.95
2024-04-30T22:14:39.996Z,2.35
2024-04-30T22:17:07.496Z,2.42
2024-04-30T22:19:35.176Z,2.40
2024-04-30T22:22:02.702Z,2.40
2024-04-30T22:24:30.133Z,2.15
2024-04-30T22:26:57.462Z,2.30
2024-04-30T22:29:24.851Z,2.13
2024-04-30T22:31:52.242Z,2.70
2024-04-30T22:34:19.877Z,2.42
2024-04-30T22:36:47.471Z,2.17
2024-04-30T22:39:14.895Z,2.03
2024-04-30T22:41:42.280Z,2.35
2024-04-30T22:44:10.188Z,2.55
2024-04-30T22:46:37.618Z,2.75
2024-04-30T22:49:05.001Z,2.30
2024-04-30T22:51:34.058Z,2.00
2024-04-30T22:54:01.473Z,3.50
2024-04-30T22:56:30.114Z,3.10
2024-04-30T22:58:58.846Z,2.85
2024-04-30T23:01:26.283Z,2.15
2024-04-30T23:03:53.772Z,2.80
2024-04-30T23:06:21.208Z,2.70
2024-04-30T23:08:48.657Z,2.65
2024-04-30T23:11:16.349Z,2.70
2024-04-30T23:13:43.751Z,2.60
2024-04-30T23:16:11.132Z,2.88
2024-04-30T23:18:38.986Z,2.28
2024-04-30T23:21:11.591Z,2.70
2024-04-30T23:23:39.268Z,2.70
2024-04-30T23:26:08.140Z,2.72
2024-04-30T23:28:35.518Z,2.40
2024-04-30T23:31:03.464Z,2.63
2024-04-30T23:33:31.104Z,2.75
2024-04-30T23:35:58.634Z,2.75
2024-04-30T23:38:26.080Z,3.28
2024-04-30T23:40:53.581Z,2.30
2024-04-30T23:43:21.438Z,3.47
2024-04-30T23:45:49.138Z,3.33
2024-04-30T23:48:16.525Z,2.35
2024-04-30T23:50:43.883Z,2.55
2024-04-30T23:53:11.514Z,2.47
2024-04-30T23:55:38.880Z,2.90
2024-04-30T23:58:06.339Z,2.85
